Time;durP1;ratioP1;P1;durP2;ratioP2;P2;SDS_P1;SDS_P2;PMS_P1;PMS_P2;Temp;Humidity;BMP_temperature;BMP_pressure;BME280_temperature;BME280_humidity;BME280_pressure;Samples;Min_cycle;Max_cycle;Signal;HPM_P1;HPM_P2
2023/09/06 00:02:07;;;;;;;;;;;22.40;71.00;;;;;;10485297;28;19940;-57
2023/09/06 00:07:09;;;;;;;;;;;22.40;70.90;;;;;;10485741;28;19933;-57
2023/09/06 00:12:10;;;;;;;;;;;22.40;70.80;;;;;;10504663;28;20335;-57
2023/09/06 00:17:12;;;;;;;;;;;22.40;70.80;;;;;;10512130;28;20216;-57
2023/09/06 00:22:13;;;;;;;;;;;22.50;70.70;;;;;;10484128;28;20200;-58
2023/09/06 00:27:15;;;;;;;;;;;22.50;70.50;;;;;;10479587;28;19933;-57
2023/09/06 00:32:17;;;;;;;;;;;22.40;70.50;;;;;;10496959;28;19933;-56
2023/09/06 00:37:18;;;;;;;;;;;22.40;70.50;;;;;;10498274;28;19940;-57
2023/09/06 00:42:24;;;;;;;;;;;22.40;70.50;;;;;;10489364;28;19939;-56
2023/09/06 00:47:26;;;;;;;;;;;22.40;70.50;;;;;;10523242;28;20018;-57
2023/09/06 00:52:28;;;;;;;;;;;22.40;70.50;;;;;;10491079;28;20410;-57
2023/09/06 00:57:29;;;;;;;;;;;22.40;70.40;;;;;;10489564;28;19933;-57
2023/09/06 01:02:31;;;;;;;;;;;22.40;70.50;;;;;;10474005;28;19992;-56
2023/09/06 01:07:36;;;;;;;;;;;22.30;70.40;;;;;;10493096;28;19939;-56
2023/09/06 01:12:38;;;;;;;;;;;22.40;70.50;;;;;;10494977;28;19933;-56
2023/09/06 01:17:42;;;;;;;;;;;22.30;70.40;;;;;;10486602;28;20200;-57
2023/09/06 01:22:54;;;;;;;;;;;22.40;70.50;;;;;;10496239;28;20017;-56
2023/09/06 01:27:56;;;;;;;;;;;22.30;70.40;;;;;;10508013;28;19954;-58
2023/09/06 01:32:58;;;;;;;;;;;22.30;70.40;;;;;;10481443;28;19939;-58
2023/09/06 01:37:59;;;;;;;;;;;22.30;70.40;;;;;;10493522;28;20443;-57
2023/09/06 01:43:01;;;;;;;;;;;22.30;70.40;;;;;;10491025;28;19932;-57
2023/09/06 01:48:03;;;;;;;;;;;22.30;70.30;;;;;;10484941;28;20289;-57
2023/09/06 01:53:05;;;;;;;;;;;22.30;70.30;;;;;;10493082;28;19940;-57
2023/09/06 01:58:07;;;;;;;;;;;22.30;70.30;;;;;;10480461;28;20028;-57
2023/09/06 02:03:09;;;;;;;;;;;22.30;70.20;;;;;;10488089;28;19972;-57
2023/09/06 02:08:13;;;;;;;;;;;22.30;70.20;;;;;;10491967;28;19936;-57
2023/09/06 02:13:14;;;;;;;;;;;22.20;70.00;;;;;;10480249;28;19940;-57
2023/09/06 02:18:17;;;;;;;;;;;22.20;71.10;;;;;;10490884;28;19940;-61
2023/09/06 02:23:19;;;;;;;;;;;22.20;70.10;;;;;;10490174;28;20521;-57
2023/09/06 02:28:20;;;;;;;;;;;22.20;70.10;;;;;;10472636;28;19933;-57
2023/09/06 02:33:22;;;;;;;;;;;22.20;70.00;;;;;;10475752;28;19939;-57
2023/09/06 02:38:26;;;;;;;;;;;22.20;70.00;;;;;;10491102;28;20027;-56
2023/09/06 02:43:28;;;;;;;;;;;22.20;70.00;;;;;;10479244;28;19933;-57
2023/09/06 02:48:33;;;;;;;;;;;22.20;69.90;;;;;;10491519;28;19937;-57
2023/09/06 02:53:34;;;;;;;;;;;22.20;69.90;;;;;;10492729;28;19939;-57
2023/09/06 02:58:37;;;;;;;;;;;22.20;69.90;;;;;;10490560;28;20400;-56
2023/09/06 03:03:41;;;;;;;;;;;22.20;69.80;;;;;;10478221;28;20065;-57
2023/09/06 03:08:44;;;;;;;;;;;22.20;69.90;;;;;;10482089;28;19933;-57
2023/09/06 03:13:46;;;;;;;;;;;22.20;69.80;;;;;;10487436;28;19940;-57
2023/09/06 03:18:49;;;;;;;;;;;22.20;69.80;;;;;;10464511;28;19936;-71
2023/09/06 03:23:52;;;;;;;;;;;22.20;69.70;;;;;;10492829;28;19932;-57
2023/09/06 03:28:56;;;;;;;;;;;22.20;69.70;;;;;;10490809;28;20032;-57
2023/09/06 03:33:58;;;;;;;;;;;22.20;69.60;;;;;;10486928;28;19940;-57
2023/09/06 03:39:00;;;;;;;;;;;22.20;69.50;;;;;;10477866;28;19939;-57
2023/09/06 03:44:02;;;;;;;;;;;22.20;69.50;;;;;;10484507;28;19940;-57
2023/09/06 03:49:06;;;;;;;;;;;22.20;69.50;;;;;;10487995;28;20019;-57
2023/09/06 03:54:09;;;;;;;;;;;22.20;69.50;;;;;;10489368;28;19983;-57
2023/09/06 03:59:11;;;;;;;;;;;22.20;69.40;;;;;;10496540;28;20399;-57
2023/09/06 04:04:13;;;;;;;;;;;22.20;69.30;;;;;;10484156;28;20424;-57
2023/09/06 04:09:18;;;;;;;;;;;22.20;69.30;;;;;;10496372;28;20323;-57
2023/09/06 04:14:27;;;;;;;;;;;22.20;69.20;;;;;;10488552;28;19932;-61
2023/09/06 04:19:29;;;;;;;;;;;22.20;69.10;;;;;;10497194;28;19932;-56
2023/09/06 04:24:31;;;;;;;;;;;22.20;69.10;;;;;;10484301;28;19933;-57
2023/09/06 04:29:33;;;;;;;;;;;22.20;69.00;;;;;;10494041;28;19964;-57
2023/09/06 04:34:34;;;;;;;;;;;22.20;69.00;;;;;;10491055;28;19993;-56
2023/09/06 04:39:36;;;;;;;;;;;22.20;68.90;;;;;;10484644;28;19933;-59
2023/09/06 04:44:37;;;;;;;;;;;22.20;68.80;;;;;;10492286;28;20012;-57
2023/09/06 04:49:40;;;;;;;;;;;22.20;68.80;;;;;;10956938;22;19933;-44
2023/09/06 04:54:43;;;;;;;;;;;22.20;68.70;;;;;;10533021;28;20194;-45
2023/09/06 04:59:45;;;;;;;;;;;22.20;68.70;;;;;;10526979;28;20284;-49
2023/09/06 05:04:47;;;;;;;;;;;22.20;68.60;;;;;;10542565;28;19933;-47
2023/09/06 05:09:49;;;;;;;;;;;22.20;68.50;;;;;;10522320;28;20418;-45
2023/09/06 05:14:52;;;;;;;;;;;22.20;68.50;;;;;;10514165;28;19959;-44
2023/09/06 05:19:54;;;;;;;;;;;22.20;68.40;;;;;;10525284;28;20383;-44
2023/09/06 05:24:56;;;;;;;;;;;22.20;68.30;;;;;;10533054;28;20416;-41
2023/09/06 05:29:58;;;;;;;;;;;22.20;68.40;;;;;;10527615;28;19940;-42
2023/09/06 05:34:59;;;;;;;;;;;22.20;68.70;;;;;;10528377;28;19932;-42
2023/09/06 05:40:04;;;;;;;;;;;22.20;69.20;;;;;;10526878;28;20149;-45
2023/09/06 05:45:12;;;;;;;;;;;22.30;69.20;;;;;;10520617;28;19940;-40
2023/09/06 05:50:14;;;;;;;;;;;22.20;68.90;;;;;;10513594;28;19982;-43
2023/09/06 05:55:15;;;;;;;;;;;22.20;68.80;;;;;;10520526;28;19939;-42
2023/09/06 06:00:17;;;;;;;;;;;22.20;68.80;;;;;;10526052;28;20388;-43
2023/09/06 06:05:19;;;;;;;;;;;22.20;68.70;;;;;;10508464;28;20002;-43
2023/09/06 06:10:20;;;;;;;;;;;22.20;68.60;;;;;;10497152;28;19932;-43
2023/09/06 06:15:22;;;;;;;;;;;22.20;68.60;;;;;;10496049;28;20417;-43
2023/09/06 06:20:24;;;;;;;;;;;22.20;68.50;;;;;;10510516;28;19933;-41
2023/09/06 06:25:42;;;;;;;;;;;22.20;68.50;;;;;;10502449;28;20386;-42
2023/09/06 06:30:44;;;;;;;;;;;22.20;68.40;;;;;;10500597;28;19940;-41
2023/09/06 06:35:46;;;;;;;;;;;22.20;68.40;;;;;;10496814;28;19933;-41
2023/09/06 06:40:47;;;;;;;;;;;22.20;68.40;;;;;;10519637;28;19939;-40
2023/09/06 06:45:53;;;;;;;;;;;22.20;68.30;;;;;;10509099;28;20381;-41
2023/09/06 06:50:55;;;;;;;;;;;22.20;68.30;;;;;;10520488;28;20363;-44
2023/09/06 06:55:57;;;;;;;;;;;22.20;68.30;;;;;;10532008;28;19939;-43
2023/09/06 07:01:00;;;;;;;;;;;22.30;68.40;;;;;;10524223;28;19933;-41
2023/09/06 07:06:01;;;;;;;;;;;22.20;68.40;;;;;;10503914;28;19937;-41
2023/09/06 07:11:04;;;;;;;;;;;22.20;68.30;;;;;;10503683;28;20027;-42
2023/09/06 07:16:06;;;;;;;;;;;22.30;68.40;;;;;;10515399;28;19963;-43
2023/09/06 07:21:08;;;;;;;;;;;22.30;68.40;;;;;;10514446;28;19933;-43
2023/09/06 07:26:09;;;;;;;;;;;22.20;68.50;;;;;;10525749;28;19933;-43
2023/09/06 07:31:12;;;;;;;;;;;22.20;68.50;;;;;;10504373;28;19937;-42
2023/09/06 07:36:14;;;;;;;;;;;22.20;68.50;;;;;;10512453;28;19940;-43
2023/09/06 07:41:17;;;;;;;;;;;22.20;68.50;;;;;;10520766;28;20020;-45
2023/09/06 07:46:18;;;;;;;;;;;22.30;68.80;;;;;;10504917;28;19932;-44
2023/09/06 07:51:20;;;;;;;;;;;22.30;68.80;;;;;;10504536;28;19940;-41
2023/09/06 07:56:22;;;;;;;;;;;22.20;68.70;;;;;;10523136;28;19940;-41
2023/09/06 08:01:24;;;;;;;;;;;22.20;68.80;;;;;;10531748;28;19963;-42
2023/09/06 08:06:25;;;;;;;;;;;22.20;68.80;;;;;;10513829;28;19933;-42
2023/09/06 08:11:27;;;;;;;;;;;22.20;69.00;;;;;;10498877;28;19940;-41
2023/09/06 08:16:29;;;;;;;;;;;22.20;69.00;;;;;;10525548;28;20035;-46
2023/09/06 08:21:31;;;;;;;;;;;22.20;69.10;;;;;;10513085;28;20364;-41
2023/09/06 08:26:33;;;;;;;;;;;22.10;69.10;;;;;;10502186;28;20383;-41
2023/09/06 08:31:34;;;;;;;;;;;22.20;69.20;;;;;;10498781;28;19933;-40
2023/09/06 08:36:36;;;;;;;;;;;22.20;69.30;;;;;;10525493;28;19940;-42
2023/09/06 08:41:38;;;;;;;;;;;22.20;69.30;;;;;;10501460;28;19937;-41
2023/09/06 08:46:41;;;;;;;;;;;22.20;69.30;;;;;;10500569;28;19975;-42
2023/09/06 08:51:43;;;;;;;;;;;22.20;69.30;;;;;;10516352;28;20358;-42
2023/09/06 08:56:45;;;;;;;;;;;22.20;69.30;;;;;;10522792;28;20457;-44
2023/09/06 09:01:47;;;;;;;;;;;22.20;69.30;;;;;;10515130;28;19933;-47
2023/09/06 09:06:49;;;;;;;;;;;22.20;69.30;;;;;;10511403;28;20031;-42
2023/09/06 09:11:51;;;;;;;;;;;22.20;69.30;;;;;;10511954;28;19932;-42
2023/09/06 09:16:54;;;;;;;;;;;22.20;69.30;;;;;;10498535;28;19940;-41
2023/09/06 09:21:56;;;;;;;;;;;22.20;69.30;;;;;;10498023;28;19939;-42
2023/09/06 09:26:58;;;;;;;;;;;22.20;69.30;;;;;;10498407;28;20529;-44
2023/09/06 09:32:03;;;;;;;;;;;22.30;69.30;;;;;;10509954;28;19939;-44
2023/09/06 09:37:07;;;;;;;;;;;22.40;69.00;;;;;;10499619;28;19932;-43
2023/09/06 09:42:09;;;;;;;;;;;22.40;68.70;;;;;;10498301;28;20371;-42
2023/09/06 09:47:12;;;;;;;;;;;22.50;68.60;;;;;;10502176;28;20441;-41
2023/09/06 09:52:34;;;;;;;;;;;22.60;68.40;;;;;;10503181;28;20474;-41
2023/09/06 09:57:36;;;;;;;;;;;22.80;68.20;;;;;;10517621;28;19932;-45
2023/09/06 10:02:39;;;;;;;;;;;22.80;67.90;;;;;;10530617;28;19940;-45
2023/09/06 10:07:42;;;;;;;;;;;22.90;67.70;;;;;;10514673;28;20387;-41
2023/09/06 10:12:52;;;;;;;;;;;23.00;67.50;;;;;;10533848;28;20026;-42
2023/09/06 10:17:54;;;;;;;;;;;23.10;67.40;;;;;;10537444;28;19933;-40
2023/09/06 10:22:57;;;;;;;;;;;23.20;67.30;;;;;;10535537;28;19940;-41
2023/09/06 10:28:01;;;;;;;;;;;23.20;68.20;;;;;;10496521;28;19940;-41
2023/09/06 10:33:03;;;;;;;;;;;23.20;67.10;;;;;;10523287;28;20479;-41
2023/09/06 10:38:10;;;;;;;;;;;23.30;67.10;;;;;;10533199;28;19932;-41
2023/09/06 10:43:12;;;;;;;;;;;23.30;67.00;;;;;;10510842;28;19932;-41
2023/09/06 10:48:16;;;;;;;;;;;23.30;67.10;;;;;;10493203;28;25918;-42
2023/09/06 10:53:18;;;;;;;;;;;23.30;67.10;;;;;;10519873;28;19933;-42
2023/09/06 10:58:23;;;;;;;;;;;23.30;67.10;;;;;;10520499;28;19933;-43
2023/09/06 11:03:31;;;;;;;;;;;23.40;67.20;;;;;;10520740;28;19932;-43
2023/09/06 11:08:33;;;;;;;;;;;23.30;67.20;;;;;;10494301;28;20466;-44
2023/09/06 11:13:39;;;;;;;;;;;23.30;67.20;;;;;;10510198;28;19939;-42
2023/09/06 11:18:42;;;;;;;;;;;23.30;67.40;;;;;;10510673;28;20239;-42
2023/09/06 11:23:47;;;;;;;;;;;23.30;67.40;;;;;;10515760;28;19939;-41
2023/09/06 11:28:59;;;;;;;;;;;23.40;67.60;;;;;;10494931;28;19936;-44
2023/09/06 11:34:03;;;;;;;;;;;23.30;67.60;;;;;;10507406;28;19956;-43
2023/09/06 11:39:15;;;;;;;;;;;23.30;67.60;;;;;;10494592;28;20412;-42
2023/09/06 11:44:19;;;;;;;;;;;23.30;67.70;;;;;;10511196;28;19939;-41
2023/09/06 11:49:25;;;;;;;;;;;23.30;67.80;;;;;;10515884;28;20426;-43
2023/09/06 11:54:28;;;;;;;;;;;23.30;67.90;;;;;;10505526;28;20043;-42
2023/09/06 11:59:32;;;;;;;;;;;23.30;68.50;;;;;;10555607;28;19932;-43
2023/09/06 12:04:34;;;;;;;;;;;23.30;68.10;;;;;;10531708;28;19940;-43
2023/09/06 12:09:36;;;;;;;;;;;23.30;68.20;;;;;;10524637;28;19939;-42
2023/09/06 12:14:41;;;;;;;;;;;23.30;68.20;;;;;;10512950;28;19933;-44
2023/09/06 12:19:44;;;;;;;;;;;23.30;68.30;;;;;;10524822;28;19938;-43
2023/09/06 12:24:47;;;;;;;;;;;23.30;68.40;;;;;;10526449;28;20059;-41
2023/09/06 12:29:49;;;;;;;;;;;23.40;68.50;;;;;;10525698;28;19933;-43
2023/09/06 12:34:52;;;;;;;;;;;23.30;68.50;;;;;;10523297;28;20018;-46
2023/09/06 12:39:54;;;;;;;;;;;23.40;68.60;;;;;;10530423;28;19943;-42
2023/09/06 12:44:56;;;;;;;;;;;23.40;68.60;;;;;;10507245;28;19932;-42
2023/09/06 12:49:59;;;;;;;;;;;23.40;68.70;;;;;;10509985;28;19933;-42
2023/09/06 12:55:04;;;;;;;;;;;23.40;68.70;;;;;;10512685;28;20195;-42
2023/09/06 13:00:07;;;;;;;;;;;23.40;68.80;;;;;;10526369;28;20413;-41
2023/09/06 13:05:09;;;;;;;;;;;23.40;68.80;;;;;;10539128;28;19933;-43
2023/09/06 13:10:11;;;;;;;;;;;23.40;68.90;;;;;;10511875;28;20419;-42
2023/09/06 13:15:13;;;;;;;;;;;23.40;69.00;;;;;;10524394;28;20002;-43
2023/09/06 13:20:15;;;;;;;;;;;23.40;69.00;;;;;;10498326;28;20118;-45
2023/09/06 13:25:18;;;;;;;;;;;23.50;69.10;;;;;;10499398;28;20295;-46
2023/09/06 13:30:19;;;;;;;;;;;23.50;69.10;;;;;;10516305;28;20857;-42
2023/09/06 13:35:21;;;;;;;;;;;23.50;69.20;;;;;;10518254;28;20031;-42
2023/09/06 13:40:23;;;;;;;;;;;23.50;69.10;;;;;;10496967;28;19939;-42
2023/09/06 13:45:25;;;;;;;;;;;23.50;69.10;;;;;;10507926;28;20947;-43
2023/09/06 13:50:30;;;;;;;;;;;23.50;69.10;;;;;;10499496;28;20327;-44
2023/09/06 13:55:32;;;;;;;;;;;23.50;69.20;;;;;;10512761;28;19932;-41
2023/09/06 14:00:34;;;;;;;;;;;23.50;69.20;;;;;;10511671;28;20549;-42
2023/09/06 14:05:35;;;;;;;;;;;23.50;69.20;;;;;;10523080;28;19940;-41
2023/09/06 14:10:37;;;;;;;;;;;23.50;69.20;;;;;;10518323;28;20298;-40
2023/09/06 14:15:39;;;;;;;;;;;23.50;69.30;;;;;;10514068;28;20450;-41
2023/09/06 14:20:41;;;;;;;;;;;23.50;69.40;;;;;;10528459;28;20019;-42
2023/09/06 14:25:43;;;;;;;;;;;23.50;69.30;;;;;;10526861;28;19933;-42
2023/09/06 14:30:45;;;;;;;;;;;23.50;69.40;;;;;;10527878;28;19954;-42
2023/09/06 14:35:47;;;;;;;;;;;23.50;69.30;;;;;;10533605;28;20310;-43
2023/09/06 14:40:49;;;;;;;;;;;23.50;69.40;;;;;;10533093;28;19932;-41
2023/09/06 14:45:50;;;;;;;;;;;23.60;69.40;;;;;;10533436;28;19940;-42
2023/09/06 14:50:59;;;;;;;;;;;23.60;69.40;;;;;;10509274;28;19933;-44
2023/09/06 14:56:01;;;;;;;;;;;23.60;69.50;;;;;;10534866;28;19936;-41
2023/09/06 15:01:03;;;;;;;;;;;23.60;69.50;;;;;;10521874;28;20284;-45
2023/09/06 15:06:08;;;;;;;;;;;23.60;69.60;;;;;;10527374;28;19933;-47
2023/09/06 15:11:10;;;;;;;;;;;23.60;69.50;;;;;;10529574;28;19976;-42
2023/09/06 15:16:12;;;;;;;;;;;23.60;69.60;;;;;;10520257;28;19933;-42
2023/09/06 15:21:14;;;;;;;;;;;23.50;69.60;;;;;;10531565;28;19936;-46
2023/09/06 15:26:16;;;;;;;;;;;23.60;69.70;;;;;;10503367;28;19999;-44
2023/09/06 15:31:19;;;;;;;;;;;23.60;69.70;;;;;;10530311;28;19939;-42
2023/09/06 15:36:23;;;;;;;;;;;23.60;69.60;;;;;;10524923;28;19939;-43
2023/09/06 15:41:31;;;;;;;;;;;23.60;69.70;;;;;;10518053;28;19933;-43
2023/09/06 15:46:34;;;;;;;;;;;23.60;70.10;;;;;;10523562;28;19975;-45
2023/09/06 15:51:36;;;;;;;;;;;23.60;70.10;;;;;;10535743;28;19986;-44
2023/09/06 15:56:38;;;;;;;;;;;23.60;70.50;;;;;;10546797;28;19940;-43
2023/09/06 16:01:40;;;;;;;;;;;23.60;71.50;;;;;;10531566;28;20326;-42
2023/09/06 16:06:43;;;;;;;;;;;23.70;71.80;;;;;;10520838;28;19939;-41
2023/09/06 16:11:44;;;;;;;;;;;23.80;72.90;;;;;;10525670;28;19940;-42
2023/09/06 16:16:46;;;;;;;;;;;23.90;73.50;;;;;;10521088;28;20414;-41
2023/09/06 16:21:48;;;;;;;;;;;24.00;74.80;;;;;;10534518;28;20284;-43
2023/09/06 16:26:54;;;;;;;;;;;24.00;76.10;;;;;;10525146;28;20488;-41
2023/09/06 16:31:56;;;;;;;;;;;24.10;77.00;;;;;;10526926;28;19932;-45
2023/09/06 16:36:58;;;;;;;;;;;24.20;75.00;;;;;;10521685;28;19963;-43
2023/09/06 16:42:00;;;;;;;;;;;24.20;74.10;;;;;;10510818;28;19940;-45
2023/09/06 16:47:04;;;;;;;;;;;24.20;74.00;;;;;;10513768;28;19933;-42
2023/09/06 16:52:07;;;;;;;;;;;24.10;73.50;;;;;;10498983;28;20844;-45
2023/09/06 16:57:09;;;;;;;;;;;24.10;73.20;;;;;;10535201;28;19932;-44
2023/09/06 17:02:11;;;;;;;;;;;24.10;73.20;;;;;;10524468;28;19982;-44
2023/09/06 17:07:14;;;;;;;;;;;24.10;72.90;;;;;;10550212;28;19979;-42
2023/09/06 17:12:15;;;;;;;;;;;24.00;72.80;;;;;;10524016;28;20178;-42
2023/09/06 17:17:18;;;;;;;;;;;24.00;73.30;;;;;;10537950;27;20015;-44
2023/09/06 17:22:20;;;;;;;;;;;24.00;73.10;;;;;;10517805;28;20684;-46
2023/09/06 17:27:22;;;;;;;;;;;23.90;73.20;;;;;;10525666;28;20411;-45
2023/09/06 17:32:25;;;;;;;;;;;23.80;73.00;;;;;;10521477;28;19973;-44
2023/09/06 17:37:27;;;;;;;;;;;23.80;73.10;;;;;;10508404;28;20498;-44
2023/09/06 17:42:31;;;;;;;;;;;23.80;73.10;;;;;;10523783;28;19932;-46
2023/09/06 17:47:33;;;;;;;;;;;23.80;73.20;;;;;;10529680;28;20123;-44
2023/09/06 17:52:37;;;;;;;;;;;23.80;73.00;;;;;;10531019;28;20307;-49
2023/09/06 17:57:40;;;;;;;;;;;23.70;72.90;;;;;;10523537;28;20418;-43
2023/09/06 18:02:43;;;;;;;;;;;23.70;72.90;;;;;;10517009;28;19940;-44
2023/09/06 18:07:46;;;;;;;;;;;23.60;72.90;;;;;;10532326;28;20078;-44
2023/09/06 18:12:48;;;;;;;;;;;23.60;72.90;;;;;;10529722;28;20310;-47
2023/09/06 18:17:51;;;;;;;;;;;23.60;72.80;;;;;;10519266;28;19932;-43
2023/09/06 18:22:53;;;;;;;;;;;23.60;73.00;;;;;;10525121;28;19933;-44
2023/09/06 18:27:55;;;;;;;;;;;23.60;73.00;;;;;;10510667;28;19939;-44
2023/09/06 18:32:57;;;;;;;;;;;23.60;73.00;;;;;;10520072;28;19933;-43
2023/09/06 18:37:59;;;;;;;;;;;23.60;73.10;;;;;;10524394;28;19939;-44
2023/09/06 18:43:02;;;;;;;;;;;23.60;73.20;;;;;;10527482;28;20027;-49
2023/09/06 18:48:07;;;;;;;;;;;23.60;73.20;;;;;;10531958;28;20465;-43
2023/09/06 18:53:09;;;;;;;;;;;23.60;73.00;;;;;;10517950;28;19983;-43
2023/09/06 18:58:11;;;;;;;;;;;23.60;73.10;;;;;;10529911;28;19931;-42
2023/09/06 19:03:13;;;;;;;;;;;23.60;73.10;;;;;;10543231;28;19941;-43
2023/09/06 19:08:16;;;;;;;;;;;23.60;73.20;;;;;;10534316;28;19933;-42
2023/09/06 19:13:19;;;;;;;;;;;23.60;73.20;;;;;;10542166;28;19936;-42
2023/09/06 19:18:21;;;;;;;;;;;23.60;73.30;;;;;;10534851;27;19932;-46
2023/09/06 19:23:23;;;;;;;;;;;23.70;73.30;;;;;;10538109;27;19933;-46
2023/09/06 19:28:25;;;;;;;;;;;23.60;73.40;;;;;;10537487;28;19967;-43
2023/09/06 19:33:27;;;;;;;;;;;23.60;73.30;;;;;;10537883;28;19932;-43
2023/09/06 19:38:30;;;;;;;;;;;23.60;73.30;;;;;;10540436;28;20409;-43
2023/09/06 19:43:32;;;;;;;;;;;23.70;73.40;;;;;;10519136;28;19932;-47
2023/09/06 19:48:33;;;;;;;;;;;23.70;73.40;;;;;;10539559;27;20091;-41
2023/09/06 19:53:47;;;;;;;;;;;23.60;73.30;;;;;;10516811;28;19932;-44
2023/09/06 19:58:53;;;;;;;;;;;23.60;73.30;;;;;;10533049;28;19933;-43
2023/09/06 20:03:54;;;;;;;;;;;23.60;73.40;;;;;;10529987;28;19963;-43
2023/09/06 20:08:57;;;;;;;;;;;23.70;73.40;;;;;;10510469;28;19933;-44
2023/09/06 20:13:59;;;;;;;;;;;23.60;73.40;;;;;;10519737;28;19932;-43
2023/09/06 20:19:01;;;;;;;;;;;23.60;73.40;;;;;;10532760;28;20207;-42
2023/09/06 20:24:03;;;;;;;;;;;23.60;73.30;;;;;;10544304;28;20399;-46
2023/09/06 20:29:07;;;;;;;;;;;23.60;73.30;;;;;;10527530;28;19933;-45
2023/09/06 20:34:09;;;;;;;;;;;23.70;73.40;;;;;;10537685;27;19933;-44
2023/09/06 20:39:12;;;;;;;;;;;23.60;73.20;;;;;;10525685;28;20455;-42
2023/09/06 20:44:14;;;;;;;;;;;23.70;73.20;;;;;;10511517;28;19936;-42
2023/09/06 20:49:16;;;;;;;;;;;23.70;73.20;;;;;;10502206;28;19933;-42
2023/09/06 20:54:18;;;;;;;;;;;23.60;73.00;;;;;;10534860;28;20070;-42
2023/09/06 20:59:19;;;;;;;;;;;23.60;73.00;;;;;;10533833;28;20292;-43
2023/09/06 21:04:21;;;;;;;;;;;23.70;73.10;;;;;;10554128;28;19932;-42
2023/09/06 21:09:23;;;;;;;;;;;23.60;72.90;;;;;;10525496;27;19964;-44
2023/09/06 21:14:25;;;;;;;;;;;23.60;72.90;;;;;;10524800;28;20458;-42
2023/09/06 21:19:28;;;;;;;;;;;23.60;72.90;;;;;;10536003;28;19939;-44
2023/09/06 21:24:30;;;;;;;;;;;23.60;72.70;;;;;;10512930;28;20026;-42
2023/09/06 21:29:32;;;;;;;;;;;23.60;72.70;;;;;;10521989;28;19941;-47
2023/09/06 21:34:34;;;;;;;;;;;23.60;72.60;;;;;;10508476;28;20728;-43
2023/09/06 21:39:36;;;;;;;;;;;23.60;72.50;;;;;;10528559;28;20023;-45
2023/09/06 21:44:38;;;;;;;;;;;23.60;72.50;;;;;;10502472;28;19933;-42
2023/09/06 21:49:40;;;;;;;;;;;23.60;72.40;;;;;;10528092;28;20401;-41
2023/09/06 21:54:42;;;;;;;;;;;23.60;72.40;;;;;;10503053;28;19936;-42
2023/09/06 21:59:43;;;;;;;;;;;23.60;72.30;;;;;;10525973;28;20405;-42
2023/09/06 22:04:45;;;;;;;;;;;23.60;72.30;;;;;;10498454;28;19940;-41
2023/09/06 22:09:47;;;;;;;;;;;23.60;72.20;;;;;;10502603;28;20031;-43
2023/09/06 22:14:49;;;;;;;;;;;23.60;72.10;;;;;;10513389;28;20437;-42
2023/09/06 22:19:50;;;;;;;;;;;23.60;72.00;;;;;;10518949;28;19939;-44
2023/09/06 22:24:52;;;;;;;;;;;23.60;71.90;;;;;;10533382;28;20383;-44
2023/09/06 22:29:54;;;;;;;;;;;23.60;71.90;;;;;;10517208;28;19932;-43
2023/09/06 22:34:55;;;;;;;;;;;23.60;72.90;;;;;;10521826;28;20842;-43
2023/09/06 22:39:57;;;;;;;;;;;23.60;71.80;;;;;;10504484;28;19932;-44
2023/09/06 22:44:59;;;;;;;;;;;23.60;71.70;;;;;;10516663;28;19939;-45
2023/09/06 22:50:01;;;;;;;;;;;23.60;71.70;;;;;;10520329;28;20523;-42
2023/09/06 22:55:03;;;;;;;;;;;23.60;71.70;;;;;;10508337;28;19933;-45
2023/09/06 23:00:07;;;;;;;;;;;23.60;71.50;;;;;;10505613;28;20304;-43
2023/09/06 23:05:09;;;;;;;;;;;23.60;71.40;;;;;;10524789;28;19932;-44
2023/09/06 23:10:11;;;;;;;;;;;23.60;71.30;;;;;;10535692;28;20401;-43
2023/09/06 23:15:15;;;;;;;;;;;23.60;71.30;;;;;;10531932;28;20011;-42
2023/09/06 23:20:25;;;;;;;;;;;23.60;71.10;;;;;;10496158;28;20327;-42
2023/09/06 23:25:29;;;;;;;;;;;23.60;71.10;;;;;;10495600;28;19932;-41
2023/09/06 23:30:35;;;;;;;;;;;23.60;71.10;;;;;;10507736;28;20151;-43
2023/09/06 23:35:37;;;;;;;;;;;23.60;71.10;;;;;;10524023;28;19933;-42
2023/09/06 23:40:39;;;;;;;;;;;23.60;71.10;;;;;;10534095;28;19955;-42
2023/09/06 23:45:44;;;;;;;;;;;23.60;71.10;;;;;;10533046;28;19940;-41
2023/09/06 23:50:46;;;;;;;;;;;23.60;71.20;;;;;;10520856;28;19932;-42
2023/09/06 23:55:48;;;;;;;;;;;23.60;71.20;;;;;;10528316;28;20387;-42
